Waukee, Iowa
Current Conditions -  °F | °C
As of 12:54 PM on Monday 20 Oct 2014 (Local Time) from KDSM Reporting Station
Clear Clear  
Wind Chill: 68°   Ceiling: Unl
Heat Index: 68°   Visibility: 10mi
Dew Point: 41°   Wind: 13mph
Humidity: 37%   Direction: 320°NW
Pressure: 30.03"   Gusts: NA
Location:  41.61°N, 93.89°W
Report Text: KDSM 201754Z 32011KT 10SM CLR 20/05 A3003 RMK AO2 SLP166 T02000050 10206 20083 58007
Loading
Personal Weather Stations






























Interactive Weather Map
Tropical Storm Tracking
New forecast layout! Learn more

10-Day Weather Forecast

Advertisements
Track Severe Weather on mobile